sensor_id;sensor_type;location;lat;lon;timestamp;P1;durP1;ratioP1;P2;durP2;ratioP2
781;SDS011;374;52.568;13.402;2023-12-14T00:00:32;38.70;;;17.83;;
781;SDS011;374;52.568;13.402;2023-12-14T00:02:58;44.57;;;20.63;;
781;SDS011;374;52.568;13.402;2023-12-14T00:05:23;43.83;;;18.97;;
781;SDS011;374;52.568;13.402;2023-12-14T00:07:49;45.10;;;19.47;;
781;SDS011;374;52.568;13.402;2023-12-14T00:10:17;44.03;;;18.40;;
781;SDS011;374;52.568;13.402;2023-12-14T00:12:43;36.37;;;18.23;;
781;SDS011;374;52.568;13.402;2023-12-14T00:15:09;36.77;;;18.43;;
781;SDS011;374;52.568;13.402;2023-12-14T00:17:35;42.23;;;20.40;;
781;SDS011;374;52.568;13.402;2023-12-14T00:20:00;34.63;;;19.00;;
781;SDS011;374;52.568;13.402;2023-12-14T00:22:26;54.37;;;20.30;;
781;SDS011;374;52.568;13.402;2023-12-14T00:24:51;46.60;;;19.80;;
781;SDS011;374;52.568;13.402;2023-12-14T00:27:17;34.10;;;19.90;;
781;SDS011;374;52.568;13.402;2023-12-14T00:29:42;33.50;;;18.17;;
781;SDS011;374;52.568;13.402;2023-12-14T00:32:08;47.43;;;19.37;;
781;SDS011;374;52.568;13.402;2023-12-14T00:34:33;38.43;;;19.33;;
781;SDS011;374;52.568;13.402;2023-12-14T00:36:58;37.10;;;18.93;;
781;SDS011;374;52.568;13.402;2023-12-14T00:39:24;39.93;;;19.57;;
781;SDS011;374;52.568;13.402;2023-12-14T00:41:49;35.87;;;20.23;;
781;SDS011;374;52.568;13.402;2023-12-14T00:44:15;37.63;;;18.73;;
781;SDS011;374;52.568;13.402;2023-12-14T00:46:40;30.90;;;17.00;;
781;SDS011;374;52.568;13.402;2023-12-14T00:49:06;33.97;;;18.83;;
781;SDS011;374;52.568;13.402;2023-12-14T00:51:32;39.57;;;18.47;;
781;SDS011;374;52.568;13.402;2023-12-14T00:54:03;42.87;;;19.07;;
781;SDS011;374;52.568;13.402;2023-12-14T00:56:29;34.97;;;17.50;;
781;SDS011;374;52.568;13.402;2023-12-14T00:58:55;45.00;;;18.07;;
781;SDS011;374;52.568;13.402;2023-12-14T01:01:20;41.23;;;19.10;;
781;SDS011;374;52.568;13.402;2023-12-14T01:03:45;37.43;;;18.83;;
781;SDS011;374;52.568;13.402;2023-12-14T01:06:11;35.27;;;17.50;;
781;SDS011;374;52.568;13.402;2023-12-14T01:08:36;29.30;;;16.97;;
781;SDS011;374;52.568;13.402;2023-12-14T01:11:02;33.17;;;17.57;;
781;SDS011;374;52.568;13.402;2023-12-14T01:13:27;26.10;;;14.40;;
781;SDS011;374;52.568;13.402;2023-12-14T01:15:53;29.83;;;13.60;;
781;SDS011;374;52.568;13.402;2023-12-14T01:18:18;34.20;;;15.83;;
781;SDS011;374;52.568;13.402;2023-12-14T01:20:44;22.87;;;14.87;;
781;SDS011;374;52.568;13.402;2023-12-14T01:23:09;31.57;;;15.07;;
781;SDS011;374;52.568;13.402;2023-12-14T01:25:35;30.40;;;15.13;;
781;SDS011;374;52.568;13.402;2023-12-14T01:28:01;28.23;;;14.07;;
781;SDS011;374;52.568;13.402;2023-12-14T01:30:27;39.00;;;14.77;;
781;SDS011;374;52.568;13.402;2023-12-14T01:32:52;29.40;;;13.67;;
781;SDS011;374;52.568;13.402;2023-12-14T01:35:17;27.27;;;15.73;;
781;SDS011;374;52.568;13.402;2023-12-14T01:37:43;28.80;;;14.20;;
781;SDS011;374;52.568;13.402;2023-12-14T01:40:08;29.67;;;15.67;;
781;SDS011;374;52.568;13.402;2023-12-14T01:42:34;30.80;;;14.70;;
781;SDS011;374;52.568;13.402;2023-12-14T01:45:00;33.50;;;14.90;;
781;SDS011;374;52.568;13.402;2023-12-14T01:47:25;28.07;;;13.40;;
781;SDS011;374;52.568;13.402;2023-12-14T01:49:51;28.43;;;14.43;;
781;SDS011;374;52.568;13.402;2023-12-14T01:52:16;22.57;;;12.30;;
781;SDS011;374;52.568;13.402;2023-12-14T01:54:42;25.37;;;13.83;;
781;SDS011;374;52.568;13.402;2023-12-14T01:57:08;27.37;;;13.30;;
781;SDS011;374;52.568;13.402;2023-12-14T01:59:33;32.30;;;13.27;;
781;SDS011;374;52.568;13.402;2023-12-14T02:01:58;27.40;;;14.50;;
781;SDS011;374;52.568;13.402;2023-12-14T02:04:26;25.40;;;14.60;;
781;SDS011;374;52.568;13.402;2023-12-14T02:06:51;29.67;;;15.10;;
781;SDS011;374;52.568;13.402;2023-12-14T02:09:17;29.37;;;15.27;;
781;SDS011;374;52.568;13.402;2023-12-14T02:11:42;29.03;;;14.63;;
781;SDS011;374;52.568;13.402;2023-12-14T02:14:08;23.17;;;13.87;;
781;SDS011;374;52.568;13.402;2023-12-14T02:16:35;36.57;;;15.57;;
781;SDS011;374;52.568;13.402;2023-12-14T02:19:03;29.20;;;14.77;;
781;SDS011;374;52.568;13.402;2023-12-14T02:21:29;29.63;;;14.70;;
781;SDS011;374;52.568;13.402;2023-12-14T02:23:54;32.17;;;15.03;;
781;SDS011;374;52.568;13.402;2023-12-14T02:26:20;33.90;;;14.83;;
781;SDS011;374;52.568;13.402;2023-12-14T02:28:45;31.20;;;14.43;;
781;SDS011;374;52.568;13.402;2023-12-14T02:31:13;33.20;;;15.20;;
781;SDS011;374;52.568;13.402;2023-12-14T02:33:39;25.60;;;14.40;;
781;SDS011;374;52.568;13.402;2023-12-14T02:36:04;37.43;;;15.23;;
781;SDS011;374;52.568;13.402;2023-12-14T02:38:30;28.07;;;15.53;;
781;SDS011;374;52.568;13.402;2023-12-14T02:40:56;30.40;;;15.33;;
781;SDS011;374;52.568;13.402;2023-12-14T02:43:21;28.20;;;14.23;;
781;SDS011;374;52.568;13.402;2023-12-14T02:45:48;31.07;;;16.50;;
781;SDS011;374;52.568;13.402;2023-12-14T02:48:14;24.10;;;15.33;;
781;SDS011;374;52.568;13.402;2023-12-14T02:50:39;27.63;;;15.13;;
781;SDS011;374;52.568;13.402;2023-12-14T02:53:05;31.83;;;17.00;;
781;SDS011;374;52.568;13.402;2023-12-14T02:55:30;36.73;;;16.10;;
781;SDS011;374;52.568;13.402;2023-12-14T02:57:56;27.33;;;16.63;;
781;SDS011;374;52.568;13.402;2023-12-14T03:00:21;28.63;;;16.00;;
781;SDS011;374;52.568;13.402;2023-12-14T03:02:47;38.07;;;15.70;;
781;SDS011;374;52.568;13.402;2023-12-14T03:05:12;30.23;;;17.97;;
781;SDS011;374;52.568;13.402;2023-12-14T03:07:38;29.50;;;16.33;;
781;SDS011;374;52.568;13.402;2023-12-14T03:10:04;29.37;;;16.60;;
781;SDS011;374;52.568;13.402;2023-12-14T03:12:29;37.10;;;16.50;;
781;SDS011;374;52.568;13.402;2023-12-14T03:14:55;31.20;;;17.73;;
781;SDS011;374;52.568;13.402;2023-12-14T03:17:20;32.43;;;17.47;;
781;SDS011;374;52.568;13.402;2023-12-14T03:19:46;26.67;;;15.10;;
781;SDS011;374;52.568;13.402;2023-12-14T03:22:11;34.20;;;16.17;;
781;SDS011;374;52.568;13.402;2023-12-14T03:24:37;29.60;;;14.70;;
781;SDS011;374;52.568;13.402;2023-12-14T03:27:03;31.03;;;16.27;;
781;SDS011;374;52.568;13.402;2023-12-14T03:29:29;29.30;;;16.33;;
781;SDS011;374;52.568;13.402;2023-12-14T03:31:55;27.30;;;16.20;;
781;SDS011;374;52.568;13.402;2023-12-14T03:34:25;31.03;;;16.83;;
781;SDS011;374;52.568;13.402;2023-12-14T03:36:51;32.37;;;15.70;;
781;SDS011;374;52.568;13.402;2023-12-14T03:39:16;23.17;;;14.17;;
781;SDS011;374;52.568;13.402;2023-12-14T03:41:42;29.97;;;13.70;;
781;SDS011;374;52.568;13.402;2023-12-14T03:44:08;23.93;;;14.80;;
781;SDS011;374;52.568;13.402;2023-12-14T03:46:34;28.30;;;13.17;;
781;SDS011;374;52.568;13.402;2023-12-14T03:48:59;21.70;;;13.20;;
781;SDS011;374;52.568;13.402;2023-12-14T03:51:25;26.63;;;14.33;;
781;SDS011;374;52.568;13.402;2023-12-14T03:53:51;22.90;;;12.80;;
781;SDS011;374;52.568;13.402;2023-12-14T03:56:16;26.93;;;13.87;;
781;SDS011;374;52.568;13.402;2023-12-14T03:58:42;23.53;;;12.20;;
781;SDS011;374;52.568;13.402;2023-12-14T04:01:07;26.93;;;12.53;;
781;SDS011;374;52.568;13.402;2023-12-14T04:03:33;21.20;;;12.50;;
781;SDS011;374;52.568;13.402;2023-12-14T04:05:58;27.37;;;14.10;;
781;SDS011;374;52.568;13.402;2023-12-14T04:08:24;24.70;;;13.33;;
781;SDS011;374;52.568;13.402;2023-12-14T04:10:49;25.70;;;15.27;;
781;SDS011;374;52.568;13.402;2023-12-14T04:13:15;23.10;;;13.00;;
781;SDS011;374;52.568;13.402;2023-12-14T04:15:40;26.13;;;12.53;;
781;SDS011;374;52.568;13.402;2023-12-14T04:18:07;25.47;;;14.10;;
781;SDS011;374;52.568;13.402;2023-12-14T04:20:33;24.87;;;13.20;;
781;SDS011;374;52.568;13.402;2023-12-14T04:22:58;30.57;;;14.13;;
781;SDS011;374;52.568;13.402;2023-12-14T04:25:24;22.50;;;13.20;;
781;SDS011;374;52.568;13.402;2023-12-14T04:27:49;23.17;;;14.03;;
781;SDS011;374;52.568;13.402;2023-12-14T04:30:15;27.33;;;14.47;;
781;SDS011;374;52.568;13.402;2023-12-14T04:32:42;26.00;;;14.93;;
781;SDS011;374;52.568;13.402;2023-12-14T04:35:07;27.57;;;16.07;;
781;SDS011;374;52.568;13.402;2023-12-14T04:37:33;27.90;;;15.10;;
781;SDS011;374;52.568;13.402;2023-12-14T04:39:59;27.80;;;14.90;;
781;SDS011;374;52.568;13.402;2023-12-14T04:42:24;25.30;;;13.43;;
781;SDS011;374;52.568;13.402;2023-12-14T04:44:50;28.57;;;13.40;;
781;SDS011;374;52.568;13.402;2023-12-14T04:47:15;25.77;;;15.23;;
781;SDS011;374;52.568;13.402;2023-12-14T04:49:41;27.00;;;15.40;;
781;SDS011;374;52.568;13.402;2023-12-14T04:52:06;27.50;;;15.60;;
781;SDS011;374;52.568;13.402;2023-12-14T04:54:35;27.27;;;14.37;;
781;SDS011;374;52.568;13.402;2023-12-14T04:57:03;32.53;;;17.47;;
781;SDS011;374;52.568;13.402;2023-12-14T04:59:28;35.53;;;19.97;;
781;SDS011;374;52.568;13.402;2023-12-14T05:01:54;26.60;;;16.07;;
781;SDS011;374;52.568;13.402;2023-12-14T05:04:19;23.83;;;15.03;;
781;SDS011;374;52.568;13.402;2023-12-14T05:06:45;30.07;;;16.20;;
781;SDS011;374;52.568;13.402;2023-12-14T05:09:10;26.43;;;14.87;;
781;SDS011;374;52.568;13.402;2023-12-14T05:11:36;22.23;;;14.67;;
781;SDS011;374;52.568;13.402;2023-12-14T05:14:02;23.67;;;14.97;;
781;SDS011;374;52.568;13.402;2023-12-14T05:16:28;27.07;;;16.30;;
781;SDS011;374;52.568;13.402;2023-12-14T05:18:59;25.10;;;15.37;;
781;SDS011;374;52.568;13.402;2023-12-14T05:21:25;25.40;;;14.50;;
781;SDS011;374;52.568;13.402;2023-12-14T05:23:50;28.13;;;14.93;;
781;SDS011;374;52.568;13.402;2023-12-14T05:26:16;31.90;;;16.80;;
781;SDS011;374;52.568;13.402;2023-12-14T05:28:41;24.60;;;13.70;;
781;SDS011;374;52.568;13.402;2023-12-14T05:31:07;22.63;;;14.13;;
781;SDS011;374;52.568;13.402;2023-12-14T05:33:36;19.93;;;13.70;;
781;SDS011;374;52.568;13.402;2023-12-14T05:36:02;24.00;;;14.70;;
781;SDS011;374;52.568;13.402;2023-12-14T05:38:30;20.30;;;13.60;;
781;SDS011;374;52.568;13.402;2023-12-14T05:40:56;26.83;;;15.40;;
781;SDS011;374;52.568;13.402;2023-12-14T05:43:21;30.57;;;15.60;;
781;SDS011;374;52.568;13.402;2023-12-14T05:45:47;21.37;;;14.43;;
781;SDS011;374;52.568;13.402;2023-12-14T05:48:12;26.20;;;14.30;;
781;SDS011;374;52.568;13.402;2023-12-14T05:50:38;21.97;;;14.00;;
781;SDS011;374;52.568;13.402;2023-12-14T05:53:03;18.63;;;12.50;;
781;SDS011;374;52.568;13.402;2023-12-14T05:55:28;27.23;;;17.07;;
781;SDS011;374;52.568;13.402;2023-12-14T05:57:54;23.80;;;14.60;;
781;SDS011;374;52.568;13.402;2023-12-14T06:00:21;21.30;;;13.70;;
781;SDS011;374;52.568;13.402;2023-12-14T06:02:47;23.73;;;14.67;;
781;SDS011;374;52.568;13.402;2023-12-14T06:05:12;22.03;;;13.90;;
781;SDS011;374;52.568;13.402;2023-12-14T06:07:38;31.70;;;18.20;;
781;SDS011;374;52.568;13.402;2023-12-14T06:10:03;23.33;;;14.83;;
781;SDS011;374;52.568;13.402;2023-12-14T06:12:29;24.27;;;14.60;;
781;SDS011;374;52.568;13.402;2023-12-14T06:14:58;28.40;;;14.40;;
781;SDS011;374;52.568;13.402;2023-12-14T06:17:23;18.70;;;12.70;;
781;SDS011;374;52.568;13.402;2023-12-14T06:19:49;19.33;;;12.53;;
781;SDS011;374;52.568;13.402;2023-12-14T06:22:14;20.23;;;13.37;;
781;SDS011;374;52.568;13.402;2023-12-14T06:24:40;31.20;;;14.03;;
781;SDS011;374;52.568;13.402;2023-12-14T06:27:05;24.83;;;14.50;;
781;SDS011;374;52.568;13.402;2023-12-14T06:29:32;21.20;;;13.30;;
781;SDS011;374;52.568;13.402;2023-12-14T06:31:57;22.10;;;13.80;;
781;SDS011;374;52.568;13.402;2023-12-14T06:34:23;21.37;;;14.03;;
781;SDS011;374;52.568;13.402;2023-12-14T06:36:48;22.70;;;12.10;;
781;SDS011;374;52.568;13.402;2023-12-14T06:39:14;24.67;;;11.87;;
781;SDS011;374;52.568;13.402;2023-12-14T06:41:39;20.20;;;13.77;;
781;SDS011;374;52.568;13.402;2023-12-14T06:44:05;20.67;;;12.43;;
781;SDS011;374;52.568;13.402;2023-12-14T06:46:31;22.97;;;14.33;;
781;SDS011;374;52.568;13.402;2023-12-14T06:48:56;19.40;;;11.47;;
781;SDS011;374;52.568;13.402;2023-12-14T06:51:25;17.03;;;11.83;;
781;SDS011;374;52.568;13.402;2023-12-14T06:53:50;19.30;;;13.77;;
781;SDS011;374;52.568;13.402;2023-12-14T06:56:16;19.60;;;14.00;;
781;SDS011;374;52.568;13.402;2023-12-14T06:58:42;24.57;;;15.13;;
781;SDS011;374;52.568;13.402;2023-12-14T07:01:15;18.47;;;14.17;;
781;SDS011;374;52.568;13.402;2023-12-14T07:03:43;18.50;;;13.03;;
781;SDS011;374;52.568;13.402;2023-12-14T07:06:12;28.10;;;15.80;;
781;SDS011;374;52.568;13.402;2023-12-14T07:08:42;25.77;;;15.80;;
781;SDS011;374;52.568;13.402;2023-12-14T07:11:08;23.40;;;15.27;;
781;SDS011;374;52.568;13.402;2023-12-14T07:13:33;21.47;;;15.57;;
781;SDS011;374;52.568;13.402;2023-12-14T07:16:01;20.13;;;14.97;;
781;SDS011;374;52.568;13.402;2023-12-14T07:18:34;26.27;;;16.13;;
781;SDS011;374;52.568;13.402;2023-12-14T07:21:03;23.13;;;16.53;;
781;SDS011;374;52.568;13.402;2023-12-14T07:23:29;40.57;;;23.20;;
781;SDS011;374;52.568;13.402;2023-12-14T07:25:55;26.20;;;16.23;;
781;SDS011;374;52.568;13.402;2023-12-14T07:28:21;32.90;;;19.73;;
781;SDS011;374;52.568;13.402;2023-12-14T07:30:47;28.20;;;15.93;;
781;SDS011;374;52.568;13.402;2023-12-14T07:33:13;32.03;;;18.40;;
781;SDS011;374;52.568;13.402;2023-12-14T07:35:39;38.10;;;18.50;;
781;SDS011;374;52.568;13.402;2023-12-14T07:38:04;33.93;;;19.10;;
781;SDS011;374;52.568;13.402;2023-12-14T07:40:30;27.10;;;16.07;;
781;SDS011;374;52.568;13.402;2023-12-14T07:42:55;37.33;;;20.70;;
781;SDS011;374;52.568;13.402;2023-12-14T07:45:21;31.90;;;18.03;;
781;SDS011;374;52.568;13.402;2023-12-14T07:47:46;32.67;;;16.83;;
781;SDS011;374;52.568;13.402;2023-12-14T07:50:11;38.77;;;17.30;;
781;SDS011;374;52.568;13.402;2023-12-14T07:52:38;33.67;;;18.73;;
781;SDS011;374;52.568;13.402;2023-12-14T07:55:04;33.40;;;20.00;;
781;SDS011;374;52.568;13.402;2023-12-14T07:57:30;33.33;;;18.30;;
781;SDS011;374;52.568;13.402;2023-12-14T07:59:56;30.03;;;17.20;;
781;SDS011;374;52.568;13.402;2023-12-14T08:02:22;32.03;;;18.83;;
781;SDS011;374;52.568;13.402;2023-12-14T08:04:47;38.50;;;19.00;;
781;SDS011;374;52.568;13.402;2023-12-14T08:07:13;35.37;;;19.80;;
781;SDS011;374;52.568;13.402;2023-12-14T08:09:38;34.77;;;19.70;;
781;SDS011;374;52.568;13.402;2023-12-14T08:12:04;28.50;;;18.37;;
781;SDS011;374;52.568;13.402;2023-12-14T08:14:32;32.23;;;19.27;;
781;SDS011;374;52.568;13.402;2023-12-14T08:16:59;34.40;;;19.93;;
781;SDS011;374;52.568;13.402;2023-12-14T08:19:24;34.10;;;19.87;;
781;SDS011;374;52.568;13.402;2023-12-14T08:21:50;40.30;;;19.93;;
781;SDS011;374;52.568;13.402;2023-12-14T08:24:15;37.47;;;18.60;;
781;SDS011;374;52.568;13.402;2023-12-14T08:26:41;31.33;;;18.53;;
781;SDS011;374;52.568;13.402;2023-12-14T08:29:06;37.53;;;19.60;;
781;SDS011;374;52.568;13.402;2023-12-14T08:31:32;26.00;;;15.27;;
781;SDS011;374;52.568;13.402;2023-12-14T08:33:57;35.60;;;19.30;;
781;SDS011;374;52.568;13.402;2023-12-14T08:36:22;35.60;;;20.27;;
781;SDS011;374;52.568;13.402;2023-12-14T08:38:48;42.43;;;21.23;;
781;SDS011;374;52.568;13.402;2023-12-14T08:41:14;37.63;;;21.37;;
781;SDS011;374;52.568;13.402;2023-12-14T08:43:40;38.30;;;21.63;;
781;SDS011;374;52.568;13.402;2023-12-14T08:46:05;29.43;;;19.60;;
781;SDS011;374;52.568;13.402;2023-12-14T08:48:31;43.03;;;21.07;;
781;SDS011;374;52.568;13.402;2023-12-14T08:50:56;33.03;;;19.00;;
781;SDS011;374;52.568;13.402;2023-12-14T08:53:22;44.60;;;22.60;;
781;SDS011;374;52.568;13.402;2023-12-14T08:55:51;30.17;;;17.47;;
781;SDS011;374;52.568;13.402;2023-12-14T08:58:16;36.13;;;22.10;;
781;SDS011;374;52.568;13.402;2023-12-14T09:00:41;35.37;;;21.47;;
781;SDS011;374;52.568;13.402;2023-12-14T09:03:07;34.73;;;20.17;;
781;SDS011;374;52.568;13.402;2023-12-14T09:05:33;41.10;;;21.13;;
781;SDS011;374;52.568;13.402;2023-12-14T09:07:58;38.73;;;19.70;;
781;SDS011;374;52.568;13.402;2023-12-14T09:10:24;37.50;;;19.53;;
781;SDS011;374;52.568;13.402;2023-12-14T09:12:50;45.33;;;25.40;;
781;SDS011;374;52.568;13.402;2023-12-14T09:15:16;47.00;;;22.50;;
781;SDS011;374;52.568;13.402;2023-12-14T09:17:41;39.50;;;20.63;;
781;SDS011;374;52.568;13.402;2023-12-14T09:20:08;31.33;;;19.03;;
781;SDS011;374;52.568;13.402;2023-12-14T09:22:34;35.20;;;20.03;;
781;SDS011;374;52.568;13.402;2023-12-14T09:25:00;30.50;;;18.70;;
781;SDS011;374;52.568;13.402;2023-12-14T09:27:25;32.30;;;19.40;;
781;SDS011;374;52.568;13.402;2023-12-14T09:29:51;37.43;;;19.37;;
781;SDS011;374;52.568;13.402;2023-12-14T09:32:17;31.30;;;17.80;;
781;SDS011;374;52.568;13.402;2023-12-14T09:34:42;29.23;;;19.83;;
781;SDS011;374;52.568;13.402;2023-12-14T09:37:08;37.20;;;19.23;;
781;SDS011;374;52.568;13.402;2023-12-14T09:39:34;32.07;;;18.10;;
781;SDS011;374;52.568;13.402;2023-12-14T09:42:04;36.10;;;19.77;;
781;SDS011;374;52.568;13.402;2023-12-14T09:44:32;41.30;;;18.93;;
781;SDS011;374;52.568;13.402;2023-12-14T09:47:01;33.97;;;19.37;;
781;SDS011;374;52.568;13.402;2023-12-14T09:49:30;33.13;;;18.47;;
781;SDS011;374;52.568;13.402;2023-12-14T09:51:57;45.90;;;20.77;;
781;SDS011;374;52.568;13.402;2023-12-14T09:54:23;32.40;;;20.23;;
781;SDS011;374;52.568;13.402;2023-12-14T09:56:49;34.17;;;20.00;;
781;SDS011;374;52.568;13.402;2023-12-14T09:59:15;35.33;;;19.60;;
781;SDS011;374;52.568;13.402;2023-12-14T10:01:41;42.00;;;20.37;;
781;SDS011;374;52.568;13.402;2023-12-14T10:06:34;31.77;;;19.27;;
781;SDS011;374;52.568;13.402;2023-12-14T10:08:59;43.53;;;22.10;;
781;SDS011;374;52.568;13.402;2023-12-14T10:11:31;36.77;;;19.93;;
781;SDS011;374;52.568;13.402;2023-12-14T10:13:59;41.90;;;22.60;;
781;SDS011;374;52.568;13.402;2023-12-14T10:16:31;38.33;;;21.23;;
781;SDS011;374;52.568;13.402;2023-12-14T10:18:58;45.10;;;19.90;;
781;SDS011;374;52.568;13.402;2023-12-14T10:21:27;40.60;;;19.53;;
781;SDS011;374;52.568;13.402;2023-12-14T10:23:56;37.83;;;20.57;;
781;SDS011;374;52.568;13.402;2023-12-14T10:26:22;40.97;;;21.80;;
781;SDS011;374;52.568;13.402;2023-12-14T10:28:50;42.80;;;21.07;;
781;SDS011;374;52.568;13.402;2023-12-14T10:31:17;39.17;;;20.70;;
781;SDS011;374;52.568;13.402;2023-12-14T10:33:43;37.93;;;20.20;;
781;SDS011;374;52.568;13.402;2023-12-14T10:36:09;29.40;;;16.40;;
781;SDS011;374;52.568;13.402;2023-12-14T10:38:35;34.50;;;19.80;;
781;SDS011;374;52.568;13.402;2023-12-14T10:41:06;32.17;;;18.37;;
781;SDS011;374;52.568;13.402;2023-12-14T10:43:34;37.83;;;20.60;;
781;SDS011;374;52.568;13.402;2023-12-14T10:46:01;36.60;;;18.63;;
781;SDS011;374;52.568;13.402;2023-12-14T10:48:30;32.00;;;19.03;;
781;SDS011;374;52.568;13.402;2023-12-14T10:50:56;29.00;;;18.80;;
781;SDS011;374;52.568;13.402;2023-12-14T10:53:26;36.17;;;19.03;;
781;SDS011;374;52.568;13.402;2023-12-14T10:55:52;36.93;;;19.50;;
781;SDS011;374;52.568;13.402;2023-12-14T10:58:19;35.83;;;19.00;;
781;SDS011;374;52.568;13.402;2023-12-14T11:00:46;33.70;;;18.60;;
781;SDS011;374;52.568;13.402;2023-12-14T11:03:24;30.07;;;18.90;;
781;SDS011;374;52.568;13.402;2023-12-14T11:05:51;37.53;;;19.47;;
781;SDS011;374;52.568;13.402;2023-12-14T11:08:16;36.13;;;18.43;;
781;SDS011;374;52.568;13.402;2023-12-14T11:10:43;27.60;;;15.00;;
781;SDS011;374;52.568;13.402;2023-12-14T11:13:20;33.97;;;16.73;;
781;SDS011;374;52.568;13.402;2023-12-14T11:15:50;31.30;;;18.30;;
781;SDS011;374;52.568;13.402;2023-12-14T11:18:20;30.90;;;16.47;;
781;SDS011;374;52.568;13.402;2023-12-14T11:25:51;27.77;;;17.10;;
781;SDS011;374;52.568;13.402;2023-12-14T11:28:22;30.80;;;17.73;;
781;SDS011;374;52.568;13.402;2023-12-14T11:30:48;30.60;;;18.40;;
781;SDS011;374;52.568;13.402;2023-12-14T11:33:14;28.93;;;14.43;;
781;SDS011;374;52.568;13.402;2023-12-14T11:35:41;29.30;;;16.50;;
781;SDS011;374;52.568;13.402;2023-12-14T11:38:07;27.50;;;15.93;;
781;SDS011;374;52.568;13.402;2023-12-14T11:40:39;33.33;;;18.30;;
781;SDS011;374;52.568;13.402;2023-12-14T11:43:05;28.00;;;17.77;;
781;SDS011;374;52.568;13.402;2023-12-14T11:45:34;32.27;;;17.70;;
781;SDS011;374;52.568;13.402;2023-12-14T11:48:01;34.10;;;17.40;;
781;SDS011;374;52.568;13.402;2023-12-14T11:50:32;35.07;;;17.03;;
781;SDS011;374;52.568;13.402;2023-12-14T11:52:58;29.73;;;18.33;;
781;SDS011;374;52.568;13.402;2023-12-14T11:55:25;32.90;;;17.10;;
781;SDS011;374;52.568;13.402;2023-12-14T11:57:51;30.10;;;18.03;;
781;SDS011;374;52.568;13.402;2023-12-14T12:00:17;26.07;;;16.80;;
781;SDS011;374;52.568;13.402;2023-12-14T12:02:43;30.43;;;17.23;;
781;SDS011;374;52.568;13.402;2023-12-14T12:05:08;32.57;;;17.97;;
781;SDS011;374;52.568;13.402;2023-12-14T12:07:38;30.87;;;17.30;;
781;SDS011;374;52.568;13.402;2023-12-14T12:10:08;36.27;;;17.93;;
781;SDS011;374;52.568;13.402;2023-12-14T12:12:35;38.53;;;18.40;;
781;SDS011;374;52.568;13.402;2023-12-14T12:15:01;29.40;;;17.60;;
781;SDS011;374;52.568;13.402;2023-12-14T12:17:26;32.20;;;19.90;;
781;SDS011;374;52.568;13.402;2023-12-14T12:19:52;31.30;;;18.07;;
781;SDS011;374;52.568;13.402;2023-12-14T12:22:18;29.10;;;17.73;;
781;SDS011;374;52.568;13.402;2023-12-14T12:24:43;27.63;;;17.20;;
781;SDS011;374;52.568;13.402;2023-12-14T12:27:09;29.17;;;19.13;;
781;SDS011;374;52.568;13.402;2023-12-14T12:29:34;34.67;;;19.70;;
781;SDS011;374;52.568;13.402;2023-12-14T12:32:00;24.50;;;17.50;;
781;SDS011;374;52.568;13.402;2023-12-14T12:34:25;32.20;;;17.97;;
781;SDS011;374;52.568;13.402;2023-12-14T12:36:51;32.67;;;19.30;;
781;SDS011;374;52.568;13.402;2023-12-14T12:39:16;34.03;;;19.23;;
781;SDS011;374;52.568;13.402;2023-12-14T12:41:42;30.90;;;18.13;;
781;SDS011;374;52.568;13.402;2023-12-14T12:44:08;31.07;;;18.60;;
781;SDS011;374;52.568;13.402;2023-12-14T12:46:37;29.60;;;17.83;;
781;SDS011;374;52.568;13.402;2023-12-14T12:49:03;27.47;;;18.03;;
781;SDS011;374;52.568;13.402;2023-12-14T12:51:30;27.37;;;17.77;;
781;SDS011;374;52.568;13.402;2023-12-14T12:53:57;32.77;;;18.40;;
781;SDS011;374;52.568;13.402;2023-12-14T12:56:26;33.30;;;18.20;;
781;SDS011;374;52.568;13.402;2023-12-14T12:58:57;34.03;;;18.20;;
781;SDS011;374;52.568;13.402;2023-12-14T13:01:23;31.00;;;18.13;;
781;SDS011;374;52.568;13.402;2023-12-14T13:03:52;31.60;;;19.17;;
781;SDS011;374;52.568;13.402;2023-12-14T13:06:18;31.70;;;17.93;;
781;SDS011;374;52.568;13.402;2023-12-14T13:08:44;26.70;;;18.13;;
781;SDS011;374;52.568;13.402;2023-12-14T13:11:09;36.47;;;17.37;;
781;SDS011;374;52.568;13.402;2023-12-14T13:13:35;28.50;;;17.37;;
781;SDS011;374;52.568;13.402;2023-12-14T13:16:00;27.60;;;17.70;;
781;SDS011;374;52.568;13.402;2023-12-14T13:18:26;33.30;;;18.73;;
781;SDS011;374;52.568;13.402;2023-12-14T13:20:51;29.77;;;18.50;;
781;SDS011;374;52.568;13.402;2023-12-14T13:23:17;28.13;;;17.93;;
781;SDS011;374;52.568;13.402;2023-12-14T13:25:42;26.60;;;17.83;;
781;SDS011;374;52.568;13.402;2023-12-14T13:28:09;34.30;;;18.70;;
781;SDS011;374;52.568;13.402;2023-12-14T13:30:37;30.33;;;17.50;;
781;SDS011;374;52.568;13.402;2023-12-14T13:33:03;31.93;;;18.10;;
781;SDS011;374;52.568;13.402;2023-12-14T13:35:31;27.33;;;18.23;;
781;SDS011;374;52.568;13.402;2023-12-14T13:37:57;31.70;;;19.17;;
781;SDS011;374;52.568;13.402;2023-12-14T13:40:22;25.20;;;14.97;;
781;SDS011;374;52.568;13.402;2023-12-14T13:42:48;32.33;;;17.43;;
781;SDS011;374;52.568;13.402;2023-12-14T13:45:14;34.43;;;17.50;;
781;SDS011;374;52.568;13.402;2023-12-14T13:47:39;30.03;;;17.80;;
781;SDS011;374;52.568;13.402;2023-12-14T13:50:05;32.33;;;19.07;;
781;SDS011;374;52.568;13.402;2023-12-14T13:52:31;36.53;;;18.70;;
781;SDS011;374;52.568;13.402;2023-12-14T13:54:56;35.03;;;19.57;;
781;SDS011;374;52.568;13.402;2023-12-14T13:57:24;29.87;;;17.27;;
781;SDS011;374;52.568;13.402;2023-12-14T13:59:49;34.60;;;19.33;;
781;SDS011;374;52.568;13.402;2023-12-14T14:02:15;36.47;;;18.20;;
781;SDS011;374;52.568;13.402;2023-12-14T14:04:41;29.50;;;18.30;;
781;SDS011;374;52.568;13.402;2023-12-14T14:07:06;33.63;;;18.73;;
781;SDS011;374;52.568;13.402;2023-12-14T14:09:32;32.27;;;18.87;;
781;SDS011;374;52.568;13.402;2023-12-14T14:11:58;32.00;;;17.47;;
781;SDS011;374;52.568;13.402;2023-12-14T14:14:31;31.27;;;18.70;;
781;SDS011;374;52.568;13.402;2023-12-14T14:16:56;31.67;;;16.80;;
781;SDS011;374;52.568;13.402;2023-12-14T14:19:25;28.50;;;17.33;;
781;SDS011;374;52.568;13.402;2023-12-14T14:21:50;31.33;;;17.80;;
781;SDS011;374;52.568;13.402;2023-12-14T14:24:16;29.23;;;18.43;;
781;SDS011;374;52.568;13.402;2023-12-14T14:26:44;35.73;;;19.83;;
781;SDS011;374;52.568;13.402;2023-12-14T14:29:10;30.50;;;17.17;;
781;SDS011;374;52.568;13.402;2023-12-14T14:31:36;28.40;;;17.63;;
781;SDS011;374;52.568;13.402;2023-12-14T14:34:02;36.53;;;18.57;;
781;SDS011;374;52.568;13.402;2023-12-14T14:36:27;33.10;;;18.23;;
781;SDS011;374;52.568;13.402;2023-12-14T14:38:53;29.93;;;19.40;;
781;SDS011;374;52.568;13.402;2023-12-14T14:41:22;34.63;;;20.60;;
781;SDS011;374;52.568;13.402;2023-12-14T14:43:47;27.17;;;17.87;;
781;SDS011;374;52.568;13.402;2023-12-14T14:46:13;26.90;;;16.33;;
781;SDS011;374;52.568;13.402;2023-12-14T14:48:38;32.00;;;17.83;;
781;SDS011;374;52.568;13.402;2023-12-14T14:51:04;35.90;;;18.73;;
781;SDS011;374;52.568;13.402;2023-12-14T14:53:30;32.73;;;18.13;;
781;SDS011;374;52.568;13.402;2023-12-14T14:55:55;27.47;;;17.50;;
781;SDS011;374;52.568;13.402;2023-12-14T14:58:21;26.87;;;15.63;;
781;SDS011;374;52.568;13.402;2023-12-14T15:00:47;21.10;;;13.17;;